createdAt,value
2022-10-17T09:39:15.313Z,99509.19
2022-10-17T09:42:30.170Z,99505.19
2022-10-17T09:45:44.195Z,99509.25
2022-10-17T09:48:55.712Z,99511.59
2022-10-17T09:52:03.321Z,99502.41
2022-10-17T09:55:20.593Z,99509.84
2022-10-17T09:58:43.856Z,99504.69
2022-10-17T10:01:50.955Z,99519.25
2022-10-17T10:05:07.295Z,99502.75
2022-10-17T10:08:18.989Z,99507.44
2022-10-17T10:11:28.229Z,99508.78
2022-10-17T10:14:40.616Z,99503.78
2022-10-17T10:17:46.477Z,99507.63
2022-10-17T10:21:08.337Z,99506.16
2022-10-17T10:24:17.296Z,99501.50
2022-10-17T10:30:51.241Z,99505.94
2022-10-17T10:33:58.081Z,99499.38
2022-10-17T10:37:06.701Z,99500.44
2022-10-17T10:40:20.891Z,99494.41
2022-10-17T10:43:34.324Z,99492.88
2022-10-17T10:46:43.777Z,99489.13
2022-10-17T10:49:50.162Z,99497.78
2022-10-17T10:53:10.846Z,99487.84
2022-10-17T10:56:21.566Z,99493.47
2022-10-17T10:59:36.012Z,99488.84
2022-10-17T11:02:53.967Z,99483.16
2022-10-17T11:06:06.646Z,99482.72
2022-10-17T11:09:28.837Z,99479.03
2022-10-17T11:12:42.593Z,99481.34
2022-10-17T11:15:52.804Z,99481.63
2022-10-17T11:19:14.201Z,99481.38
2022-10-17T11:22:28.202Z,99480.03
2022-10-17T11:25:38.726Z,99477.16
2022-10-17T11:28:44.575Z,99469.66
2022-10-17T11:31:55.826Z,99468.97
2022-10-17T11:35:08.744Z,99467.41
2022-10-17T11:38:21.667Z,99468.44
2022-10-17T11:41:33.148Z,99462.38
2022-10-17T11:44:41.603Z,99476.41
2022-10-17T11:47:50.715Z,99472.56
2022-10-17T11:54:43.780Z,99467.47
2022-10-17T11:58:03.396Z,99460.91
2022-10-17T12:01:19.196Z,99464.06
2022-10-17T12:04:44.765Z,99462.13
2022-10-17T12:08:03.685Z,99465.50
2022-10-17T12:11:18.166Z,99461.38
2022-10-17T12:14:45.818Z,99454.34
2022-10-17T12:17:58.571Z,99451.78
2022-10-17T12:21:04.307Z,99452.63
2022-10-17T12:24:30.823Z,99455.81
2022-10-17T12:27:50.193Z,99441.63
2022-10-17T12:31:03.725Z,99452.38
2022-10-17T12:34:09.710Z,99444.81
2022-10-17T12:37:16.232Z,99437.28
2022-10-17T12:40:59.483Z,99442.28
2022-10-17T12:44:39.018Z,99446.97
2022-10-17T12:47:44.760Z,99442.81
2022-10-17T12:54:46.969Z,99442.63
2022-10-17T12:58:00.500Z,99439.84
2022-10-17T13:01:23.893Z,99439.84
2022-10-17T13:04:32.968Z,99444.44
2022-10-17T13:07:39.875Z,99447.09
2022-10-17T13:10:51.785Z,99441.53
2022-10-17T13:14:03.915Z,99438.16
2022-10-17T13:17:23.548Z,99441.78
2022-10-17T13:20:32.133Z,99437.81
2022-10-17T13:23:39.912Z,99438.94
2022-10-17T13:26:49.109Z,99433.59
2022-10-17T13:29:59.731Z,99439.75
2022-10-17T13:33:21.723Z,99432.22
2022-10-17T13:36:29.044Z,99431.09
2022-10-17T13:39:58.172Z,99425.75
2022-10-17T13:43:18.299Z,99429.53
2022-10-17T13:46:38.023Z,99419.00
2022-10-17T13:49:47.136Z,99427.97
2022-10-17T13:53:10.001Z,99422.38
2022-10-17T13:56:28.517Z,99429.53
2022-10-17T13:59:41.201Z,99424.09
2022-10-17T14:02:51.336Z,99425.75
2022-10-17T14:06:16.723Z,99421.88
2022-10-17T14:09:26.462Z,99424.66
2022-10-17T14:12:32.120Z,99417.66
2022-10-17T14:15:40.677Z,99424.09
2022-10-17T14:18:51.131Z,99419.84
2022-10-17T14:21:59.808Z,99419.25
2022-10-17T14:25:08.163Z,99423.88
2022-10-17T14:28:18.840Z,99421.47
2022-10-17T14:31:29.139Z,99423.41
2022-10-17T14:34:42.378Z,99423.41
2022-10-17T14:37:50.897Z,99419.19
2022-10-17T14:44:29.383Z,99424.44
2022-10-17T14:47:43.682Z,99428.34
2022-10-17T14:51:15.454Z,99423.00
2022-10-17T14:54:26.196Z,99422.53
2022-10-17T14:57:45.005Z,99429.94
2022-10-17T15:00:51.479Z,99428.63
2022-10-17T15:03:57.102Z,99433.22
2022-10-17T15:07:06.423Z,99424.75
2022-10-17T15:10:26.396Z,99426.97
2022-10-17T15:13:39.225Z,99425.78
2022-10-17T15:16:47.821Z,99420.91
2022-10-17T15:19:54.337Z,99421.41
2022-10-17T15:23:06.362Z,99421.91
2022-10-17T15:26:18.448Z,99416.34
2022-10-17T15:29:24.286Z,99418.03
2022-10-17T15:32:30.740Z,99413.44
2022-10-17T15:35:36.346Z,99413.22
2022-10-17T15:38:45.598Z,99413.09
2022-10-17T15:41:51.540Z,99407.66
2022-10-17T15:44:58.635Z,99409.19
2022-10-17T15:48:08.575Z,99411.72
2022-10-17T15:51:15.051Z,99407.09
2022-10-17T15:58:51.616Z,99404.41
2022-10-17T16:01:57.522Z,99399.91
2022-10-17T16:05:04.153Z,99410.41
2022-10-17T16:08:09.830Z,99408.56
2022-10-17T16:11:22.613Z,99408.38
2022-10-17T16:14:31.909Z,99409.03
2022-10-17T16:17:38.493Z,99416.00
2022-10-17T16:20:44.811Z,99417.66
2022-10-17T16:23:51.264Z,99416.41
2022-10-17T16:26:56.909Z,99431.09
2022-10-17T16:30:07.301Z,99430.91
2022-10-17T16:33:13.438Z,99431.56
2022-10-17T16:36:20.369Z,99426.06
2022-10-17T16:42:37.313Z,99433.09
2022-10-17T16:45:45.746Z,99436.53
2022-10-17T16:48:52.537Z,99432.06
2022-10-17T16:51:58.448Z,99434.59
2022-10-17T16:55:07.919Z,99429.00
2022-10-17T16:58:13.516Z,99441.81
2022-10-17T17:01:26.035Z,99429.94
2022-10-17T17:04:31.915Z,99424.28
2022-10-17T17:07:38.357Z,99424.66
2022-10-17T17:10:49.484Z,99425.84
2022-10-17T17:13:58.063Z,99427.97
2022-10-17T17:17:09.623Z,99433.47
2022-10-17T17:20:21.943Z,99422.41
2022-10-17T17:23:27.844Z,99421.97
2022-10-17T17:26:37.068Z,99419.00
2022-10-17T17:29:42.654Z,99418.75
2022-10-17T17:32:52.129Z,99413.00
2022-10-17T17:35:58.504Z,99415.28
2022-10-17T17:39:08.889Z,99418.38
2022-10-17T17:42:14.439Z,99422.75
2022-10-17T17:45:21.023Z,99417.38
2022-10-17T17:48:29.373Z,99414.44
2022-10-17T17:51:37.789Z,99419.59
2022-10-17T17:54:43.374Z,99413.81
2022-10-17T17:57:50.087Z,99415.25
2022-10-17T18:00:55.967Z,99416.59
2022-10-17T18:04:06.303Z,99422.25
2022-10-17T18:07:12.109Z,99421.78
2022-10-17T18:10:19.392Z,99423.00
2022-10-17T18:13:25.141Z,99425.09
2022-10-17T18:16:33.276Z,99418.50
2022-10-17T18:19:41.758Z,99423.22
2022-10-17T18:22:48.212Z,99419.13
2022-10-17T18:25:57.165Z,99423.94
2022-10-17T18:29:03.676Z,99420.13
2022-10-17T18:32:09.339Z,99420.28
2022-10-17T18:35:18.939Z,99422.34
2022-10-17T18:38:24.509Z,99413.97
2022-10-17T18:41:31.652Z,99414.25
2022-10-17T18:44:37.252Z,99424.25
2022-10-17T18:47:47.479Z,99423.66
2022-10-17T18:50:55.944Z,99421.38
2022-10-17T18:54:03.343Z,99423.44
2022-10-17T18:57:09.667Z,99426.41
2022-10-17T19:00:16.938Z,99431.13
2022-10-17T19:03:22.813Z,99431.38
2022-10-17T19:06:33.848Z,99428.66
2022-10-17T19:09:39.495Z,99425.84
2022-10-17T19:12:45.936Z,99426.41
2022-10-17T19:15:51.654Z,99425.09
2022-10-17T19:19:00.117Z,99424.00
2022-10-17T19:22:10.358Z,99416.50
2022-10-17T19:25:16.921Z,99415.16
2022-10-17T19:28:23.041Z,99419.44
2022-10-17T19:31:31.712Z,99417.47
2022-10-17T19:34:38.255Z,99415.75
2022-10-17T19:37:47.448Z,99412.47
2022-10-17T19:40:53.111Z,99417.81
2022-10-17T19:43:59.706Z,99421.59
2022-10-17T19:47:06.796Z,99422.69
2022-10-17T19:50:13.550Z,99418.56
2022-10-17T19:53:22.406Z,99418.72
2022-10-17T19:56:30.341Z,99412.00
2022-10-17T19:59:36.036Z,99413.22
2022-10-17T20:02:42.493Z,99406.31
2022-10-17T20:05:48.893Z,99409.72
2022-10-17T20:08:58.087Z,99413.47
2022-10-17T20:12:03.663Z,99411.13
2022-10-17T20:15:10.780Z,99407.88
2022-10-17T20:18:16.806Z,99416.91
2022-10-17T20:21:27.359Z,99413.69
2022-10-17T20:24:35.726Z,99411.22
2022-10-17T20:27:42.170Z,99407.22
2022-10-17T20:30:48.516Z,99413.06
2022-10-17T20:33:58.686Z,99415.06
2022-10-17T20:37:06.815Z,99404.84
2022-10-17T20:40:34.195Z,99419.13
2022-10-17T20:43:41.101Z,99417.78
2022-10-17T20:47:01.321Z,99418.09
2022-10-17T20:50:08.808Z,99411.47
2022-10-17T20:53:35.991Z,99405.59
2022-10-17T20:56:44.410Z,99403.28
2022-10-17T20:59:50.984Z,99408.94
2022-10-17T21:02:56.671Z,99401.25
2022-10-17T21:06:03.540Z,99406.78
2022-10-17T21:09:09.911Z,99402.59
2022-10-17T21:12:26.261Z,99407.19
2022-10-17T21:15:42.462Z,99403.78
2022-10-17T21:18:49.491Z,99395.88
2022-10-17T21:21:55.091Z,99402.00
2022-10-17T21:25:03.580Z,99397.50
2022-10-17T21:28:12.004Z,99406.16
2022-10-17T21:31:21.068Z,99388.97
2022-10-17T21:34:28.763Z,99401.84
2022-10-17T21:37:35.177Z,99396.38
2022-10-17T21:40:40.705Z,99402.59
2022-10-17T21:43:50.429Z,99391.38
2022-10-17T21:46:57.486Z,99396.91
2022-10-17T21:50:03.873Z,99398.19
2022-10-17T21:53:09.868Z,99393.59
2022-10-17T21:56:18.454Z,99389.84
2022-10-17T21:59:26.955Z,99393.25
2022-10-17T22:02:33.604Z,99390.47
2022-10-17T22:05:39.341Z,99384.41
2022-10-17T22:08:45.870Z,99391.47
2022-10-17T22:11:54.801Z,99393.25
2022-10-17T22:15:04.097Z,99390.69
2022-10-17T22:18:10.028Z,99390.03
2022-10-17T22:21:18.961Z,99387.63
2022-10-17T22:24:25.228Z,99385.44
2022-10-17T22:27:31.972Z,99386.41
2022-10-17T22:30:40.432Z,99377.91
2022-10-17T22:33:47.137Z,99380.94
2022-10-17T22:36:52.739Z,99387.50
2022-10-17T22:39:59.195Z,99379.91
2022-10-17T22:43:06.859Z,99384.41
2022-10-17T22:46:17.455Z,99380.25
2022-10-17T22:49:23.074Z,99373.53
2022-10-17T22:52:30.015Z,99375.56
2022-10-17T22:55:35.861Z,99372.31
2022-10-17T22:58:42.981Z,99374.34
2022-10-17T23:01:51.372Z,99369.22
2022-10-17T23:04:57.832Z,99367.69
2022-10-17T23:08:03.453Z,99373.13
2022-10-17T23:11:10.621Z,99365.22
2022-10-17T23:14:16.279Z,99360.25
2022-10-17T23:17:25.564Z,99361.81
2022-10-17T23:20:31.666Z,99368.00
2022-10-17T23:23:38.113Z,99362.56
2022-10-17T23:26:43.663Z,99352.75
2022-10-17T23:29:50.046Z,99363.94
2022-10-17T23:32:59.081Z,99358.47
2022-10-17T23:36:07.943Z,99359.13
2022-10-17T23:39:14.136Z,99354.66
2022-10-17T23:42:20.594Z,99350.22
2022-10-17T23:45:26.516Z,99355.50
2022-10-17T23:48:35.819Z,99353.81
2022-10-17T23:51:41.376Z,99347.84
2022-10-17T23:54:47.979Z,99359.38
2022-10-17T23:57:53.536Z,99351.56
